sensor_id;sensor_type;location;lat;lon;timestamp;temperature;humidity
13713;DHT22;6928;50.546;7.120;2023-04-01T00:00:32;10.84;80.14
13713;DHT22;6928;50.546;7.120;2023-04-01T00:03:00;10.94;79.65
13713;DHT22;6928;50.546;7.120;2023-04-01T00:05:27;10.88;79.72
13713;DHT22;6928;50.546;7.120;2023-04-01T00:07:53;10.91;79.51
13713;DHT22;6928;50.546;7.120;2023-04-01T00:10:20;10.88;79.60
13713;DHT22;6928;50.546;7.120;2023-04-01T00:12:47;10.89;79.59
13713;DHT22;6928;50.546;7.120;2023-04-01T00:15:16;10.89;79.71
13713;DHT22;6928;50.546;7.120;2023-04-01T00:17:43;10.88;79.48
13713;DHT22;6928;50.546;7.120;2023-04-01T00:20:11;10.88;79.42
13713;DHT22;6928;50.546;7.120;2023-04-01T00:22:39;10.92;78.47
13713;DHT22;6928;50.546;7.120;2023-04-01T00:25:07;10.95;78.77
13713;DHT22;6928;50.546;7.120;2023-04-01T00:27:34;10.88;78.84
13713;DHT22;6928;50.546;7.120;2023-04-01T00:30:02;10.87;78.87
13713;DHT22;6928;50.546;7.120;2023-04-01T00:32:30;10.92;78.37
13713;DHT22;6928;50.546;7.120;2023-04-01T00:34:57;10.88;79.11
13713;DHT22;6928;50.546;7.120;2023-04-01T00:37:25;10.88;79.04
13713;DHT22;6928;50.546;7.120;2023-04-01T00:39:53;10.88;79.24
13713;DHT22;6928;50.546;7.120;2023-04-01T00:42:23;10.84;79.24
13713;DHT22;6928;50.546;7.120;2023-04-01T00:44:53;10.81;79.30
13713;DHT22;6928;50.546;7.120;2023-04-01T00:47:21;10.83;79.06
13713;DHT22;6928;50.546;7.120;2023-04-01T00:49:52;10.78;79.65
13713;DHT22;6928;50.546;7.120;2023-04-01T00:52:24;10.68;79.83
13713;DHT22;6928;50.546;7.120;2023-04-01T00:54:55;10.73;79.54
13713;DHT22;6928;50.546;7.120;2023-04-01T00:57:27;10.81;79.33
13713;DHT22;6928;50.546;7.120;2023-04-01T00:59:55;10.74;79.56
13713;DHT22;6928;50.546;7.120;2023-04-01T01:02:22;10.73;79.77
13713;DHT22;6928;50.546;7.120;2023-04-01T01:04:50;10.74;79.82
13713;DHT22;6928;50.546;7.120;2023-04-01T01:07:27;10.77;79.74
13713;DHT22;6928;50.546;7.120;2023-04-01T01:10:03;10.76;79.91
13713;DHT22;6928;50.546;7.120;2023-04-01T01:12:38;10.70;79.88
13713;DHT22;6928;50.546;7.120;2023-04-01T01:15:14;10.70;79.98
13713;DHT22;6928;50.546;7.120;2023-04-01T01:17:51;10.70;79.95
13713;DHT22;6928;50.546;7.120;2023-04-01T01:24:03;10.66;79.72
13713;DHT22;6928;50.546;7.120;2023-04-01T01:26:49;10.66;79.59
13713;DHT22;6928;50.546;7.120;2023-04-01T01:29:58;10.66;79.77
13713;DHT22;6928;50.546;7.120;2023-04-01T01:33:01;10.61;80.16
13713;DHT22;6928;50.546;7.120;2023-04-01T01:35:37;10.61;80.24
13713;DHT22;6928;50.546;7.120;2023-04-01T01:38:09;10.61;80.63
13713;DHT22;6928;50.546;7.120;2023-04-01T01:40:40;10.56;80.30
13713;DHT22;6928;50.546;7.120;2023-04-01T01:43:11;10.60;80.47
13713;DHT22;6928;50.546;7.120;2023-04-01T01:45:43;10.61;80.17
13713;DHT22;6928;50.546;7.120;2023-04-01T01:48:11;10.57;80.56
13713;DHT22;6928;50.546;7.120;2023-04-01T01:50:40;10.60;80.40
13713;DHT22;6928;50.546;7.120;2023-04-01T01:53:11;10.64;80.64
13713;DHT22;6928;50.546;7.120;2023-04-01T01:55:40;10.60;80.44
13713;DHT22;6928;50.546;7.120;2023-04-01T01:58:13;10.53;80.57
13713;DHT22;6928;50.546;7.120;2023-04-01T02:00:44;10.63;80.18
13713;DHT22;6928;50.546;7.120;2023-04-01T02:03:13;10.67;79.74
13713;DHT22;6928;50.546;7.120;2023-04-01T02:05:42;10.63;79.96
13713;DHT22;6928;50.546;7.120;2023-04-01T02:08:13;10.61;80.40
13713;DHT22;6928;50.546;7.120;2023-04-01T02:10:47;10.56;79.69
13713;DHT22;6928;50.546;7.120;2023-04-01T02:13:21;10.55;80.25
13713;DHT22;6928;50.546;7.120;2023-04-01T02:15:51;10.56;80.38
13713;DHT22;6928;50.546;7.120;2023-04-01T02:18:21;10.60;80.38
13713;DHT22;6928;50.546;7.120;2023-04-01T02:20:50;10.59;80.57
13713;DHT22;6928;50.546;7.120;2023-04-01T02:23:18;10.57;80.30
13713;DHT22;6928;50.546;7.120;2023-04-01T02:25:45;10.60;79.91
13713;DHT22;6928;50.546;7.120;2023-04-01T02:28:13;10.59;80.21
13713;DHT22;6928;50.546;7.120;2023-04-01T02:30:45;10.57;79.76
13713;DHT22;6928;50.546;7.120;2023-04-01T02:33:14;10.57;80.05
13713;DHT22;6928;50.546;7.120;2023-04-01T02:35:41;10.57;80.21
13713;DHT22;6928;50.546;7.120;2023-04-01T02:38:09;10.59;80.24
13713;DHT22;6928;50.546;7.120;2023-04-01T02:40:45;10.60;80.21
13713;DHT22;6928;50.546;7.120;2023-04-01T02:43:12;10.57;80.18
13713;DHT22;6928;50.546;7.120;2023-04-01T02:45:39;10.57;80.38
13713;DHT22;6928;50.546;7.120;2023-04-01T02:48:06;10.56;80.26
13713;DHT22;6928;50.546;7.120;2023-04-01T02:50:32;10.55;80.49
13713;DHT22;6928;50.546;7.120;2023-04-01T02:53:00;10.55;80.29
13713;DHT22;6928;50.546;7.120;2023-04-01T02:55:29;10.53;80.57
13713;DHT22;6928;50.546;7.120;2023-04-01T02:57:56;10.56;80.42
13713;DHT22;6928;50.546;7.120;2023-04-01T03:00:24;10.53;80.92
13713;DHT22;6928;50.546;7.120;2023-04-01T03:02:51;10.50;80.36
13713;DHT22;6928;50.546;7.120;2023-04-01T03:05:17;10.57;79.14
13713;DHT22;6928;50.546;7.120;2023-04-01T03:07:44;10.51;80.47
13713;DHT22;6928;50.546;7.120;2023-04-01T03:10:11;10.53;80.06
13713;DHT22;6928;50.546;7.120;2023-04-01T03:12:39;10.51;79.47
13713;DHT22;6928;50.546;7.120;2023-04-01T03:15:09;10.57;79.53
13713;DHT22;6928;50.546;7.120;2023-04-01T03:17:36;10.56;79.85
13713;DHT22;6928;50.546;7.120;2023-04-01T03:20:04;10.57;79.73
13713;DHT22;6928;50.546;7.120;2023-04-01T03:22:31;10.50;79.84
13713;DHT22;6928;50.546;7.120;2023-04-01T03:24:58;10.49;80.11
13713;DHT22;6928;50.546;7.120;2023-04-01T03:27:24;10.51;79.90
13713;DHT22;6928;50.546;7.120;2023-04-01T03:29:52;10.47;80.03
13713;DHT22;6928;50.546;7.120;2023-04-01T03:32:19;10.47;80.04
13713;DHT22;6928;50.546;7.120;2023-04-01T03:34:46;10.50;79.83
13713;DHT22;6928;50.546;7.120;2023-04-01T03:37:13;10.49;79.52
13713;DHT22;6928;50.546;7.120;2023-04-01T03:39:40;10.50;79.27
13713;DHT22;6928;50.546;7.120;2023-04-01T03:42:07;10.57;78.46
13713;DHT22;6928;50.546;7.120;2023-04-01T03:44:33;10.55;78.81
13713;DHT22;6928;50.546;7.120;2023-04-01T03:47:01;10.55;78.74
13713;DHT22;6928;50.546;7.120;2023-04-01T03:49:28;10.51;78.89
13713;DHT22;6928;50.546;7.120;2023-04-01T03:51:55;10.49;78.82
13713;DHT22;6928;50.546;7.120;2023-04-01T03:54:22;10.49;78.93
13713;DHT22;6928;50.546;7.120;2023-04-01T03:56:48;10.44;79.15
13713;DHT22;6928;50.546;7.120;2023-04-01T03:59:15;10.49;78.96
13713;DHT22;6928;50.546;7.120;2023-04-01T04:01:42;10.53;78.61
13713;DHT22;6928;50.546;7.120;2023-04-01T04:04:12;10.50;78.59
13713;DHT22;6928;50.546;7.120;2023-04-01T04:06:40;10.47;78.61
13713;DHT22;6928;50.546;7.120;2023-04-01T04:09:07;10.50;78.39
13713;DHT22;6928;50.546;7.120;2023-04-01T04:11:33;10.43;78.82
13713;DHT22;6928;50.546;7.120;2023-04-01T04:14:00;10.40;78.80
13713;DHT22;6928;50.546;7.120;2023-04-01T04:16:27;10.44;78.64
13713;DHT22;6928;50.546;7.120;2023-04-01T04:18:54;10.40;78.86
13713;DHT22;6928;50.546;7.120;2023-04-01T04:21:22;10.41;79.13
13713;DHT22;6928;50.546;7.120;2023-04-01T04:23:48;10.37;79.09
13713;DHT22;6928;50.546;7.120;2023-04-01T04:26:16;10.34;79.26
13713;DHT22;6928;50.546;7.120;2023-04-01T04:28:42;10.36;79.37
13713;DHT22;6928;50.546;7.120;2023-04-01T04:31:09;10.34;79.21
13713;DHT22;6928;50.546;7.120;2023-04-01T04:33:36;10.34;79.11
13713;DHT22;6928;50.546;7.120;2023-04-01T04:36:04;10.34;79.23
13713;DHT22;6928;50.546;7.120;2023-04-01T04:38:33;10.33;79.31
13713;DHT22;6928;50.546;7.120;2023-04-01T04:40:59;10.29;79.55
13713;DHT22;6928;50.546;7.120;2023-04-01T04:43:26;10.32;79.58
13713;DHT22;6928;50.546;7.120;2023-04-01T04:45:53;10.30;79.71
13713;DHT22;6928;50.546;7.120;2023-04-01T04:48:19;10.34;79.16
13713;DHT22;6928;50.546;7.120;2023-04-01T04:50:48;10.33;79.40
13713;DHT22;6928;50.546;7.120;2023-04-01T04:53:15;10.39;79.31
13713;DHT22;6928;50.546;7.120;2023-04-01T04:55:45;10.33;79.39
13713;DHT22;6928;50.546;7.120;2023-04-01T04:58:12;10.33;79.42
13713;DHT22;6928;50.546;7.120;2023-04-01T05:00:39;10.34;79.39
13713;DHT22;6928;50.546;7.120;2023-04-01T05:03:05;10.32;79.43
13713;DHT22;6928;50.546;7.120;2023-04-01T05:05:33;10.36;79.53
13713;DHT22;6928;50.546;7.120;2023-04-01T05:08:00;10.33;79.79
13713;DHT22;6928;50.546;7.120;2023-04-01T05:10:27;10.34;79.62
13713;DHT22;6928;50.546;7.120;2023-04-01T05:12:55;10.33;79.83
13713;DHT22;6928;50.546;7.120;2023-04-01T05:15:21;10.34;79.78
13713;DHT22;6928;50.546;7.120;2023-04-01T05:17:48;10.36;79.84
13713;DHT22;6928;50.546;7.120;2023-04-01T05:20:16;10.36;79.71
13713;DHT22;6928;50.546;7.120;2023-04-01T05:22:43;10.40;79.71
13713;DHT22;6928;50.546;7.120;2023-04-01T05:25:09;10.36;79.63
13713;DHT22;6928;50.546;7.120;2023-04-01T05:27:36;10.39;79.74
13713;DHT22;6928;50.546;7.120;2023-04-01T05:30:06;10.43;79.32
13713;DHT22;6928;50.546;7.120;2023-04-01T05:32:33;10.41;79.32
13713;DHT22;6928;50.546;7.120;2023-04-01T05:35:00;10.41;79.03
13713;DHT22;6928;50.546;7.120;2023-04-01T05:37:27;10.43;79.35
13713;DHT22;6928;50.546;7.120;2023-04-01T05:39:53;10.50;79.20
13713;DHT22;6928;50.546;7.120;2023-04-01T05:42:20;10.50;79.19
13713;DHT22;6928;50.546;7.120;2023-04-01T05:44:47;10.53;79.29
13713;DHT22;6928;50.546;7.120;2023-04-01T05:47:15;10.51;79.22
13713;DHT22;6928;50.546;7.120;2023-04-01T05:49:42;10.51;79.34
13713;DHT22;6928;50.546;7.120;2023-04-01T05:52:08;10.51;79.42
13713;DHT22;6928;50.546;7.120;2023-04-01T05:54:35;10.53;79.42
13713;DHT22;6928;50.546;7.120;2023-04-01T05:57:02;10.50;79.61
13713;DHT22;6928;50.546;7.120;2023-04-01T05:59:29;10.59;79.44
13713;DHT22;6928;50.546;7.120;2023-04-01T06:01:56;10.51;79.72
13713;DHT22;6928;50.546;7.120;2023-04-01T06:04:24;10.50;79.58
13713;DHT22;6928;50.546;7.120;2023-04-01T06:06:51;10.57;79.64
13713;DHT22;6928;50.546;7.120;2023-04-01T06:09:19;10.55;79.85
13713;DHT22;6928;50.546;7.120;2023-04-01T06:14:52;10.59;79.64
13713;DHT22;6928;50.546;7.120;2023-04-01T06:17:41;10.61;79.64
13713;DHT22;6928;50.546;7.120;2023-04-01T06:20:17;10.66;79.59
13713;DHT22;6928;50.546;7.120;2023-04-01T06:23:02;10.68;79.55
13713;DHT22;6928;50.546;7.120;2023-04-01T06:25:52;10.68;79.74
13713;DHT22;6928;50.546;7.120;2023-04-01T06:31:41;10.73;79.76
13713;DHT22;6928;50.546;7.120;2023-04-01T06:34:28;10.71;79.69
13713;DHT22;6928;50.546;7.120;2023-04-01T06:37:32;10.80;79.82
13713;DHT22;6928;50.546;7.120;2023-04-01T06:40:21;10.78;79.69
13713;DHT22;6928;50.546;7.120;2023-04-01T06:43:06;10.81;79.84
13713;DHT22;6928;50.546;7.120;2023-04-01T06:45:43;10.87;79.96
13713;DHT22;6928;50.546;7.120;2023-04-01T06:48:29;10.81;79.89
13713;DHT22;6928;50.546;7.120;2023-04-01T06:51:07;10.84;80.20
13713;DHT22;6928;50.546;7.120;2023-04-01T06:53:48;10.85;79.95
13713;DHT22;6928;50.546;7.120;2023-04-01T06:56:19;10.87;80.26
13713;DHT22;6928;50.546;7.120;2023-04-01T06:58:51;10.88;80.07
13713;DHT22;6928;50.546;7.120;2023-04-01T07:01:23;10.91;79.76
13713;DHT22;6928;50.546;7.120;2023-04-01T07:03:55;10.94;80.07
13713;DHT22;6928;50.546;7.120;2023-04-01T07:06:28;10.94;80.16
13713;DHT22;6928;50.546;7.120;2023-04-01T07:09:02;10.95;80.16
13713;DHT22;6928;50.546;7.120;2023-04-01T07:11:34;10.97;80.22
13713;DHT22;6928;50.546;7.120;2023-04-01T07:14:04;10.98;80.14
13713;DHT22;6928;50.546;7.120;2023-04-01T07:16:35;11.07;80.08
13713;DHT22;6928;50.546;7.120;2023-04-01T07:19:10;11.11;80.07
13713;DHT22;6928;50.546;7.120;2023-04-01T07:21:43;11.16;80.25
13713;DHT22;6928;50.546;7.120;2023-04-01T07:24:17;11.16;79.96
13713;DHT22;6928;50.546;7.120;2023-04-01T07:26:48;11.19;79.92
13713;DHT22;6928;50.546;7.120;2023-04-01T07:29:18;11.19;79.68
13713;DHT22;6928;50.546;7.120;2023-04-01T07:32:07;11.22;79.72
13713;DHT22;6928;50.546;7.120;2023-04-01T07:34:41;11.28;79.71
13713;DHT22;6928;50.546;7.120;2023-04-01T07:37:15;11.34;79.67
13713;DHT22;6928;50.546;7.120;2023-04-01T07:39:51;11.39;79.66
13713;DHT22;6928;50.546;7.120;2023-04-01T07:42:30;11.47;79.99
13713;DHT22;6928;50.546;7.120;2023-04-01T07:45:07;11.46;80.56
13713;DHT22;6928;50.546;7.120;2023-04-01T07:47:50;11.46;80.29
13713;DHT22;6928;50.546;7.120;2023-04-01T07:50:27;11.45;80.07
13713;DHT22;6928;50.546;7.120;2023-04-01T07:53:05;11.53;80.51
13713;DHT22;6928;50.546;7.120;2023-04-01T07:55:41;11.53;79.78
13713;DHT22;6928;50.546;7.120;2023-04-01T07:58:16;11.56;79.49
13713;DHT22;6928;50.546;7.120;2023-04-01T08:00:51;11.57;78.70
13713;DHT22;6928;50.546;7.120;2023-04-01T08:03:33;11.63;78.82
13713;DHT22;6928;50.546;7.120;2023-04-01T08:06:06;11.63;77.97
13713;DHT22;6928;50.546;7.120;2023-04-01T08:08:50;11.70;78.14
13713;DHT22;6928;50.546;7.120;2023-04-01T08:11:34;11.73;77.76
13713;DHT22;6928;50.546;7.120;2023-04-01T08:14:12;11.74;77.33
13713;DHT22;6928;50.546;7.120;2023-04-01T08:16:48;11.87;77.54
13713;DHT22;6928;50.546;7.120;2023-04-01T08:19:25;11.84;77.73
13713;DHT22;6928;50.546;7.120;2023-04-01T08:22:01;11.90;78.23
13713;DHT22;6928;50.546;7.120;2023-04-01T08:24:35;11.91;77.90
13713;DHT22;6928;50.546;7.120;2023-04-01T08:27:12;11.97;77.57
13713;DHT22;6928;50.546;7.120;2023-04-01T08:29:48;11.97;76.79
13713;DHT22;6928;50.546;7.120;2023-04-01T08:32:20;12.01;76.79
13713;DHT22;6928;50.546;7.120;2023-04-01T08:35:07;12.01;76.46
13713;DHT22;6928;50.546;7.120;2023-04-01T08:37:38;11.95;76.64
13713;DHT22;6928;50.546;7.120;2023-04-01T08:40:32;12.04;76.48
13713;DHT22;6928;50.546;7.120;2023-04-01T08:43:10;12.11;76.32
13713;DHT22;6928;50.546;7.120;2023-04-01T08:46:28;12.13;75.95
13713;DHT22;6928;50.546;7.120;2023-04-01T08:49:11;12.14;76.13
13713;DHT22;6928;50.546;7.120;2023-04-01T08:52:05;12.20;76.13
13713;DHT22;6928;50.546;7.120;2023-04-01T08:54:50;12.14;75.71
13713;DHT22;6928;50.546;7.120;2023-04-01T08:57:38;12.13;75.97
13713;DHT22;6928;50.546;7.120;2023-04-01T09:00:19;12.14;76.30
13713;DHT22;6928;50.546;7.120;2023-04-01T09:03:35;12.20;76.51
13713;DHT22;6928;50.546;7.120;2023-04-01T09:06:26;12.29;76.26
13713;DHT22;6928;50.546;7.120;2023-04-01T09:09:24;12.32;75.88
13713;DHT22;6928;50.546;7.120;2023-04-01T09:12:22;12.28;75.52
13713;DHT22;6928;50.546;7.120;2023-04-01T09:21:27;12.44;75.89
13713;DHT22;6928;50.546;7.120;2023-04-01T09:24:24;12.41;76.01
13713;DHT22;6928;50.546;7.120;2023-04-01T09:27:03;12.36;75.50
13713;DHT22;6928;50.546;7.120;2023-04-01T09:30:00;12.46;75.68
13713;DHT22;6928;50.546;7.120;2023-04-01T09:32:54;12.49;75.67
13713;DHT22;6928;50.546;7.120;2023-04-01T09:35:37;12.44;75.61
13713;DHT22;6928;50.546;7.120;2023-04-01T09:38:21;12.55;75.90
13713;DHT22;6928;50.546;7.120;2023-04-01T09:40:56;12.48;74.60
13713;DHT22;6928;50.546;7.120;2023-04-01T09:43:30;12.57;74.48
13713;DHT22;6928;50.546;7.120;2023-04-01T09:46:18;12.55;74.90
13713;DHT22;6928;50.546;7.120;2023-04-01T09:52:29;12.66;74.67
13713;DHT22;6928;50.546;7.120;2023-04-01T09:58:42;12.67;75.51
13713;DHT22;6928;50.546;7.120;2023-04-01T10:01:55;12.48;75.81
13713;DHT22;6928;50.546;7.120;2023-04-01T10:04:54;12.42;76.40
13713;DHT22;6928;50.546;7.120;2023-04-01T10:08:05;12.46;76.37
13713;DHT22;6928;50.546;7.120;2023-04-01T10:11:00;12.38;75.49
13713;DHT22;6928;50.546;7.120;2023-04-01T10:14:12;12.44;76.41
13713;DHT22;6928;50.546;7.120;2023-04-01T10:17:00;12.44;77.32
13713;DHT22;6928;50.546;7.120;2023-04-01T10:23:21;12.34;77.27
13713;DHT22;6928;50.546;7.120;2023-04-01T10:26:04;12.32;78.34
13713;DHT22;6928;50.546;7.120;2023-04-01T10:32:08;12.38;78.29
13713;DHT22;6928;50.546;7.120;2023-04-01T10:38:34;12.42;78.71
13713;DHT22;6928;50.546;7.120;2023-04-01T10:51:12;12.70;78.09
13713;DHT22;6928;50.546;7.120;2023-04-01T10:53:58;12.67;76.39
13713;DHT22;6928;50.546;7.120;2023-04-01T10:56:40;12.66;76.70
13713;DHT22;6928;50.546;7.120;2023-04-01T10:59:48;12.79;78.16
13713;DHT22;6928;50.546;7.120;2023-04-01T11:09:24;12.59;75.44
13713;DHT22;6928;50.546;7.120;2023-04-01T11:19:33;12.72;75.30
13713;DHT22;6928;50.546;7.120;2023-04-01T11:22:35;12.77;76.05
13713;DHT22;6928;50.546;7.120;2023-04-01T11:25:18;12.77;76.32
13713;DHT22;6928;50.546;7.120;2023-04-01T11:28:23;12.81;77.09
13713;DHT22;6928;50.546;7.120;2023-04-01T11:31:10;12.88;76.90
13713;DHT22;6928;50.546;7.120;2023-04-01T11:33:46;12.84;77.27
13713;DHT22;6928;50.546;7.120;2023-04-01T11:36:25;12.77;76.95
13713;DHT22;6928;50.546;7.120;2023-04-01T11:39:17;12.73;77.58
13713;DHT22;6928;50.546;7.120;2023-04-01T11:41:59;12.62;77.99
13713;DHT22;6928;50.546;7.120;2023-04-01T11:44:29;12.56;79.12
13713;DHT22;6928;50.546;7.120;2023-04-01T11:47:19;12.57;80.70
13713;DHT22;6928;50.546;7.120;2023-04-01T11:49:59;12.63;80.17
13713;DHT22;6928;50.546;7.120;2023-04-01T11:53:04;12.73;80.83
13713;DHT22;6928;50.546;7.120;2023-04-01T11:55:47;12.69;79.82
13713;DHT22;6928;50.546;7.120;2023-04-01T12:01:42;12.86;79.94
13713;DHT22;6928;50.546;7.120;2023-04-01T12:05:05;12.83;79.59
13713;DHT22;6928;50.546;7.120;2023-04-01T12:07:57;12.88;78.44
13713;DHT22;6928;50.546;7.120;2023-04-01T12:10:38;13.02;78.76
13713;DHT22;6928;50.546;7.120;2023-04-01T12:13:16;13.03;78.32
13713;DHT22;6928;50.546;7.120;2023-04-01T12:18:51;13.06;77.66
13713;DHT22;6928;50.546;7.120;2023-04-01T12:21:27;13.11;77.90
13713;DHT22;6928;50.546;7.120;2023-04-01T12:24:46;13.03;77.22
13713;DHT22;6928;50.546;7.120;2023-04-01T12:27:32;12.99;76.15
13713;DHT22;6928;50.546;7.120;2023-04-01T12:30:35;12.99;76.82
13713;DHT22;6928;50.546;7.120;2023-04-01T12:33:32;12.97;76.58
13713;DHT22;6928;50.546;7.120;2023-04-01T12:36:18;12.87;77.05
13713;DHT22;6928;50.546;7.120;2023-04-01T12:39:03;12.84;76.77
13713;DHT22;6928;50.546;7.120;2023-04-01T12:41:41;12.77;77.15
13713;DHT22;6928;50.546;7.120;2023-04-01T12:44:39;12.86;77.68
13713;DHT22;6928;50.546;7.120;2023-04-01T12:47:39;12.83;77.49
13713;DHT22;6928;50.546;7.120;2023-04-01T12:50:28;12.80;77.41
13713;DHT22;6928;50.546;7.120;2023-04-01T12:53:13;12.84;77.23
13713;DHT22;6928;50.546;7.120;2023-04-01T12:55:45;12.90;78.26
13713;DHT22;6928;50.546;7.120;2023-04-01T13:01:50;12.81;76.68
13713;DHT22;6928;50.546;7.120;2023-04-01T13:05:20;12.86;76.40
13713;DHT22;6928;50.546;7.120;2023-04-01T13:08:04;12.90;77.15
13713;DHT22;6928;50.546;7.120;2023-04-01T13:10:54;12.77;77.83
13713;DHT22;6928;50.546;7.120;2023-04-01T13:13:45;12.65;77.73
13713;DHT22;6928;50.546;7.120;2023-04-01T13:16:19;12.65;79.15
13713;DHT22;6928;50.546;7.120;2023-04-01T13:18:58;12.66;78.37
13713;DHT22;6928;50.546;7.120;2023-04-01T13:21:38;12.76;78.26
13713;DHT22;6928;50.546;7.120;2023-04-01T13:24:33;12.87;78.08
13713;DHT22;6928;50.546;7.120;2023-04-01T13:27:09;13.00;78.12
13713;DHT22;6928;50.546;7.120;2023-04-01T13:29:45;13.10;77.74
13713;DHT22;6928;50.546;7.120;2023-04-01T13:32:26;12.99;77.50
13713;DHT22;6928;50.546;7.120;2023-04-01T13:35:23;13.00;77.76
13713;DHT22;6928;50.546;7.120;2023-04-01T13:41:13;12.93;78.05
13713;DHT22;6928;50.546;7.120;2023-04-01T13:43:45;12.90;78.65
13713;DHT22;6928;50.546;7.120;2023-04-01T13:46:44;12.56;78.96
13713;DHT22;6928;50.546;7.120;2023-04-01T13:49:53;12.56;79.64
13713;DHT22;6928;50.546;7.120;2023-04-01T13:55:35;12.76;80.49
13713;DHT22;6928;50.546;7.120;2023-04-01T13:58:31;12.83;79.54
13713;DHT22;6928;50.546;7.120;2023-04-01T14:01:08;12.92;78.09
13713;DHT22;6928;50.546;7.120;2023-04-01T14:07:19;12.97;77.94
13713;DHT22;6928;50.546;7.120;2023-04-01T14:10:07;12.99;76.57
13713;DHT22;6928;50.546;7.120;2023-04-01T14:12:42;12.97;76.80
13713;DHT22;6928;50.546;7.120;2023-04-01T14:15:32;12.99;76.49
13713;DHT22;6928;50.546;7.120;2023-04-01T14:18:29;13.04;75.52
13713;DHT22;6928;50.546;7.120;2023-04-01T14:21:17;13.17;75.80
13713;DHT22;6928;50.546;7.120;2023-04-01T14:24:18;13.11;74.74
13713;DHT22;6928;50.546;7.120;2023-04-01T14:30:23;13.14;75.10
13713;DHT22;6928;50.546;7.120;2023-04-01T14:33:00;13.08;74.04
13713;DHT22;6928;50.546;7.120;2023-04-01T14:35:37;12.99;76.52
13713;DHT22;6928;50.546;7.120;2023-04-01T14:38:26;12.84;78.35
13713;DHT22;6928;50.546;7.120;2023-04-01T14:41:06;12.72;78.98
13713;DHT22;6928;50.546;7.120;2023-04-01T14:44:01;12.69;77.39
13713;DHT22;6928;50.546;7.120;2023-04-01T14:47:25;12.63;76.78
13713;DHT22;6928;50.546;7.120;2023-04-01T14:50:05;12.69;77.72
13713;DHT22;6928;50.546;7.120;2023-04-01T14:52:38;12.76;78.94
13713;DHT22;6928;50.546;7.120;2023-04-01T14:55:23;12.92;78.17
13713;DHT22;6928;50.546;7.120;2023-04-01T14:58:04;12.99;78.53
13713;DHT22;6928;50.546;7.120;2023-04-01T15:00:58;12.97;77.34
13713;DHT22;6928;50.546;7.120;2023-04-01T15:03:31;13.03;78.58
13713;DHT22;6928;50.546;7.120;2023-04-01T15:06:38;12.97;76.62
13713;DHT22;6928;50.546;7.120;2023-04-01T15:09:15;13.03;76.89
13713;DHT22;6928;50.546;7.120;2023-04-01T15:12:02;12.94;75.27
13713;DHT22;6928;50.546;7.120;2023-04-01T15:14:51;13.03;76.85
13713;DHT22;6928;50.546;7.120;2023-04-01T15:17:48;12.97;75.47
13713;DHT22;6928;50.546;7.120;2023-04-01T15:20:47;12.88;74.67
13713;DHT22;6928;50.546;7.120;2023-04-01T15:23:29;12.84;75.06
13713;DHT22;6928;50.546;7.120;2023-04-01T15:26:25;12.88;75.50
13713;DHT22;6928;50.546;7.120;2023-04-01T15:29:11;12.83;77.25
13713;DHT22;6928;50.546;7.120;2023-04-01T15:31:47;12.76;77.76
13713;DHT22;6928;50.546;7.120;2023-04-01T15:34:29;12.81;75.67
13713;DHT22;6928;50.546;7.120;2023-04-01T15:37:06;12.79;75.00
13713;DHT22;6928;50.546;7.120;2023-04-01T15:39:48;12.76;74.91
13713;DHT22;6928;50.546;7.120;2023-04-01T15:42:31;12.56;76.85
13713;DHT22;6928;50.546;7.120;2023-04-01T15:45:18;12.34;80.06
13713;DHT22;6928;50.546;7.120;2023-04-01T15:48:05;12.29;80.49
13713;DHT22;6928;50.546;7.120;2023-04-01T15:50:51;12.22;81.10
13713;DHT22;6928;50.546;7.120;2023-04-01T15:53:46;12.24;81.11
13713;DHT22;6928;50.546;7.120;2023-04-01T15:56:28;12.22;81.35
13713;DHT22;6928;50.546;7.120;2023-04-01T15:59:20;12.28;81.26
13713;DHT22;6928;50.546;7.120;2023-04-01T16:01:58;12.29;81.04
13713;DHT22;6928;50.546;7.120;2023-04-01T16:04:44;12.29;80.07
13713;DHT22;6928;50.546;7.120;2023-04-01T16:07:30;12.36;81.04
13713;DHT22;6928;50.546;7.120;2023-04-01T16:10:36;12.41;80.57
13713;DHT22;6928;50.546;7.120;2023-04-01T16:13:28;12.46;80.44
13713;DHT22;6928;50.546;7.120;2023-04-01T16:16:08;12.48;80.48
13713;DHT22;6928;50.546;7.120;2023-04-01T16:19:04;12.45;79.28
13713;DHT22;6928;50.546;7.120;2023-04-01T16:21:43;12.50;79.57
13713;DHT22;6928;50.546;7.120;2023-04-01T16:24:22;12.49;79.15
13713;DHT22;6928;50.546;7.120;2023-04-01T16:26:56;12.44;78.61
13713;DHT22;6928;50.546;7.120;2023-04-01T16:29:36;12.41;78.15
13713;DHT22;6928;50.546;7.120;2023-04-01T16:32:21;12.41;78.46
13713;DHT22;6928;50.546;7.120;2023-04-01T16:35:03;12.29;78.72
13713;DHT22;6928;50.546;7.120;2023-04-01T16:37:36;11.98;81.26
13713;DHT22;6928;50.546;7.120;2023-04-01T16:40:15;11.71;83.26
13713;DHT22;6928;50.546;7.120;2023-04-01T16:42:50;11.49;84.73
13713;DHT22;6928;50.546;7.120;2023-04-01T16:45:28;11.46;84.42
13713;DHT22;6928;50.546;7.120;2023-04-01T16:48:06;11.45;84.41
13713;DHT22;6928;50.546;7.120;2023-04-01T16:50:48;11.49;84.03
13713;DHT22;6928;50.546;7.120;2023-04-01T16:53:30;11.45;84.14
13713;DHT22;6928;50.546;7.120;2023-04-01T16:56:13;11.45;84.24
13713;DHT22;6928;50.546;7.120;2023-04-01T16:58:58;11.46;84.51
13713;DHT22;6928;50.546;7.120;2023-04-01T17:01:31;11.42;85.19
13713;DHT22;6928;50.546;7.120;2023-04-01T17:04:10;11.36;85.99
13713;DHT22;6928;50.546;7.120;2023-04-01T17:06:47;11.16;86.31
13713;DHT22;6928;50.546;7.120;2023-04-01T17:09:36;11.14;87.55
13713;DHT22;6928;50.546;7.120;2023-04-01T17:12:13;10.89;86.91
13713;DHT22;6928;50.546;7.120;2023-04-01T17:14:54;10.84;87.19
13713;DHT22;6928;50.546;7.120;2023-04-01T17:17:45;10.84;87.25
13713;DHT22;6928;50.546;7.120;2023-04-01T17:20:31;10.92;87.59
13713;DHT22;6928;50.546;7.120;2023-04-01T17:23:11;11.04;87.43
13713;DHT22;6928;50.546;7.120;2023-04-01T17:28:46;11.01;87.28
13713;DHT22;6928;50.546;7.120;2023-04-01T17:31:37;11.02;86.94
13713;DHT22;6928;50.546;7.120;2023-04-01T17:34:39;11.04;86.86
13713;DHT22;6928;50.546;7.120;2023-04-01T17:37:28;11.01;86.18
13713;DHT22;6928;50.546;7.120;2023-04-01T17:40:13;10.99;85.99
13713;DHT22;6928;50.546;7.120;2023-04-01T17:42:48;11.01;86.21
13713;DHT22;6928;50.546;7.120;2023-04-01T17:45:24;11.02;86.44
13713;DHT22;6928;50.546;7.120;2023-04-01T17:48:05;10.94;86.05
13713;DHT22;6928;50.546;7.120;2023-04-01T17:50:55;10.99;85.59
13713;DHT22;6928;50.546;7.120;2023-04-01T17:53:39;10.98;85.16
13713;DHT22;6928;50.546;7.120;2023-04-01T17:56:18;10.95;85.13
13713;DHT22;6928;50.546;7.120;2023-04-01T17:58:58;10.91;84.70
13713;DHT22;6928;50.546;7.120;2023-04-01T18:01:45;10.87;85.78
13713;DHT22;6928;50.546;7.120;2023-04-01T18:04:55;10.81;84.74
13713;DHT22;6928;50.546;7.120;2023-04-01T18:08:03;10.77;85.03
13713;DHT22;6928;50.546;7.120;2023-04-01T18:10:41;10.76;85.48
13713;DHT22;6928;50.546;7.120;2023-04-01T18:13:54;10.73;85.20
13713;DHT22;6928;50.546;7.120;2023-04-01T18:16:53;10.74;85.71
13713;DHT22;6928;50.546;7.120;2023-04-01T18:19:33;10.70;85.97
13713;DHT22;6928;50.546;7.120;2023-04-01T18:22:17;10.67;86.10